Pingliang, China
Current Conditions -  °F | °C
As of 6:00 AM on Thursday 27 Nov 2014 (Local Time) from ZLXY Reporting Station
Haze Haze  
Wind Chill: 43°   Ceiling: Unl
Heat Index: 43°   Visibility: 0.62mi
Dew Point: 43°   Wind: 2mph
Humidity: 100%   Direction: 340°NNW
Pressure: 30.03"   Gusts: NA
Location:  35.53°N, 106.68°E
Report Text: ZLXY 262200Z 34001MPS 1000 R05L/1800N R05R/P2000 BRSCT05006/06 Q1017 NOSIG
Loading
Personal Weather Stations






























Interactive Weather Map New forecast layout! Learn more

10-Day Weather Forecast

Advertisements
Track Severe Weather on mobile